Time;durP1;ratioP1;P1;durP2;ratioP2;P2;SDS_P1;SDS_P2;PMS_P1;PMS_P2;Temp;Humidity;BMP_temperature;BMP_pressure;BME280_temperature;BME280_humidity;BME280_pressure;Samples;Min_cycle;Max_cycle;Signal;HPM_P1;HPM_P2
2021/11/12 00:13:40;;;;;;;3.97;1.45;;;21.10;99.90;;;;;;5074354;28;20059;-69
2021/11/12 00:16:07;;;;;;;1.15;0.30;;;20.80;99.90;;;;;;5076762;28;20025;-68
2021/11/12 00:18:36;;;;;;;0.35;0.20;;;21.00;99.90;;;;;;5076665;28;20505;-70
2021/11/12 00:21:04;;;;;;;2.63;2.05;;;21.10;99.90;;;;;;5076569;28;20044;-70
2021/11/12 00:23:33;;;;;;;0.40;0.20;;;21.10;99.90;;;;;;5073939;28;20020;-69
2021/11/12 00:26:02;;;;;;;1.23;0.40;;;21.20;99.90;;;;;;5076721;28;20020;-70
2021/11/12 00:28:35;;;;;;;0.20;0.20;;;21.30;99.90;;;;;;5077454;28;20103;-69
2021/11/12 00:36:45;;;;;;;0.30;0.30;;;21.50;99.90;;;;;;5077592;28;20121;-69
2021/11/12 00:41:53;;;;;;;1.00;0.43;;;22.30;99.90;;;;;;5076770;28;20027;-69
2021/11/12 00:44:30;;;;;;;0.38;0.38;;;22.90;99.90;;;;;;5076169;28;20032;-69
2021/11/12 00:47:03;;;;;;;1.45;0.70;;;23.60;99.90;;;;;;5077218;28;20028;-70
2021/11/12 00:49:33;;;;;;;11.60;2.40;;;23.90;99.90;;;;;;5076871;28;20020;-69
2021/11/12 00:52:13;;;;;;;0.80;0.45;;;24.00;99.90;;;;;;5058378;28;20024;-69
2021/11/12 00:54:40;;;;;;;0.30;0.30;;;24.70;99.90;;;;;;5075713;28;20080;-68
2021/11/12 00:57:07;;;;;;;1.25;0.43;;;25.20;99.90;;;;;;5077121;28;20084;-69
2021/11/12 00:59:34;;;;;;;1.35;0.52;;;25.20;97.20;;;;;;5075049;28;20938;-68
2021/11/12 01:02:02;;;;;;;2.78;1.35;;;25.00;97.80;;;;;;5055987;28;20105;-70
2021/11/12 01:04:29;;;;;;;1.17;0.43;;;25.20;98.40;;;;;;5073866;28;20363;-70
2021/11/12 01:06:56;;;;;;;1.23;0.43;;;25.70;94.30;;;;;;5073824;28;20024;-70
2021/11/12 01:09:23;;;;;;;2.53;0.80;;;25.40;97.00;;;;;;5072815;28;20025;-69
2021/11/12 01:11:50;;;;;;;1.00;0.60;;;25.40;98.50;;;;;;5074541;28;20043;-69
2021/11/12 01:14:23;;;;;;;3.72;1.70;;;25.20;97.10;;;;;;5072069;28;20024;-70
2021/11/12 01:16:52;;;;;;;1.48;1.10;;;25.10;99.20;;;;;;5071642;28;20024;-69
2021/11/12 01:19:20;;;;;;;0.70;0.70;;;24.80;96.90;;;;;;5073948;28;20028;-69
2021/11/12 01:21:47;;;;;;;0.55;0.55;;;24.10;98.30;;;;;;5072490;28;20077;-68
2021/11/12 01:24:15;;;;;;;1.48;0.60;;;23.60;99.90;;;;;;5072196;28;20024;-70
2021/11/12 01:26:43;;;;;;;2.00;0.90;;;23.40;99.90;;;;;;5072525;28;20023;-69
2021/11/12 01:29:10;;;;;;;1.65;0.77;;;23.30;99.90;;;;;;5073378;28;20059;-69
2021/11/12 01:31:39;;;;;;;3.88;1.90;;;23.20;99.90;;;;;;5072830;28;20352;-70
2021/11/12 01:34:08;;;;;;;1.50;1.00;;;23.00;99.90;;;;;;5072214;28;20079;-68
2021/11/12 01:36:40;;;;;;;0.77;0.60;;;22.90;99.90;;;;;;5073104;28;20028;-70
2021/11/12 01:39:14;;;;;;;1.35;0.60;;;23.00;99.90;;;;;;5072759;28;20120;-69
2021/11/12 01:41:48;;;;;;;0.80;0.57;;;23.20;99.90;;;;;;5072674;28;20483;-69
2021/11/12 01:44:17;;;;;;;0.88;0.50;;;23.50;99.90;;;;;;5074067;28;20036;-69
2021/11/12 01:46:55;;;;;;;1.33;0.65;;;23.70;99.90;;;;;;5056480;28;20025;-69
2021/11/12 01:49:33;;;;;;;2.03;0.50;;;23.70;99.90;;;;;;5071873;28;20108;-69
2021/11/12 01:59:36;;;;;;;2.17;0.73;;;25.30;99.10;;;;;;5072077;28;20802;-68
2021/11/12 02:02:08;;;;;;;2.72;1.48;;;25.60;99.90;;;;;;5071187;28;20024;-70
2021/11/12 02:04:37;;;;;;;11.98;9.55;;;25.90;98.60;;;;;;5072247;28;20478;-70
2021/11/12 02:07:05;;;;;;;9.68;7.82;;;26.30;96.70;;;;;;5072169;28;20036;-66
2021/11/12 02:09:32;;;;;;;3.88;0.95;;;26.80;96.90;;;;;;5052996;28;20024;-68
2021/11/12 02:12:09;;;;;;;2.55;1.23;;;27.00;95.00;;;;;;5071593;28;20101;-69
2021/11/12 02:14:38;;;;;;;3.25;1.08;;;26.90;93.90;;;;;;5072488;28;20483;-65
2021/11/12 02:17:21;;;;;;;0.95;0.50;;;26.80;94.00;;;;;;5071993;28;20483;-68
2021/11/12 02:19:55;;;;;;;0.90;0.50;;;26.60;93.20;;;;;;5072544;28;20032;-67
2021/11/12 02:22:26;;;;;;;0.65;0.50;;;26.80;94.30;;;;;;5072860;28;20032;-67
2021/11/12 02:25:02;;;;;;;0.90;0.60;;;27.20;92.70;;;;;;5072379;28;20402;-66
2021/11/12 02:27:38;;;;;;;2.13;0.45;;;27.40;95.10;;;;;;5072960;28;20028;-66
2021/11/12 02:30:06;;;;;;;1.48;0.70;;;27.90;93.50;;;;;;5073089;28;20077;-68
2021/11/12 02:32:33;;;;;;;1.13;0.60;;;28.30;92.70;;;;;;5073154;28;20032;-65
2021/11/12 02:35:03;;;;;;;0.88;0.80;;;28.30;90.00;;;;;;5072579;28;20508;-68
2021/11/12 02:37:32;;;;;;;0.70;0.70;;;28.10;90.20;;;;;;5071987;28;20025;-68
2021/11/12 02:39:59;;;;;;;2.05;0.80;;;27.60;90.70;;;;;;5072661;28;20482;-69
2021/11/12 02:42:27;;;;;;;4.13;0.77;;;27.40;91.00;;;;;;5072256;28;20573;-69
2021/11/12 02:44:55;;;;;;;2.10;0.50;;;27.30;90.90;;;;;;5044349;28;20032;-68
2021/11/12 02:47:23;;;;;;;1.85;0.60;;;26.60;92.10;;;;;;5070995;28;20024;-68
2021/11/12 02:49:56;;;;;;;0.95;0.60;;;26.20;93.80;;;;;;5075403;28;20028;-69
2021/11/12 02:52:23;;;;;;;3.58;0.60;;;25.80;94.40;;;;;;5075931;28;20097;-67
2021/11/12 02:54:51;;;;;;;1.08;0.60;;;25.40;94.10;;;;;;5073630;28;20048;-66
2021/11/12 02:57:20;;;;;;;2.60;0.95;;;25.30;95.90;;;;;;5075523;28;20029;-66
2021/11/12 02:59:48;;;;;;;0.68;0.60;;;25.30;95.40;;;;;;5075082;28;20067;-65
2021/11/12 03:02:15;;;;;;;1.00;0.70;;;25.50;97.20;;;;;;5074150;28;20047;-66
2021/11/12 03:04:42;;;;;;;1.90;0.75;;;25.80;95.40;;;;;;5075183;28;20393;-64
2021/11/12 03:07:09;;;;;;;4.20;1.20;;;26.20;94.60;;;;;;5076664;28;20016;-63
2021/11/12 03:09:36;;;;;;;1.65;0.70;;;26.10;94.90;;;;;;5075038;28;20205;-64
2021/11/12 03:12:07;;;;;;;2.63;1.45;;;26.20;95.00;;;;;;5073884;28;20028;-64
2021/11/12 03:14:35;;;;;;;3.20;0.75;;;25.90;94.80;;;;;;5076202;28;20020;-63
2021/11/12 03:17:03;;;;;;;1.73;0.68;;;25.60;96.20;;;;;;5074479;28;20032;-63
2021/11/12 03:19:31;;;;;;;3.42;1.00;;;25.40;95.80;;;;;;5075036;28;20039;-66
2021/11/12 03:22:04;;;;;;;3.05;0.88;;;25.40;97.00;;;;;;5077059;28;20051;-63
2021/11/12 03:24:37;;;;;;;1.20;0.70;;;25.80;95.60;;;;;;5076122;28;20867;-64
2021/11/12 03:27:17;;;;;;;2.20;1.05;;;26.50;96.70;;;;;;5074610;28;20021;-63
2021/11/12 03:59:59;;;;;;;3.75;1.30;;;30.50;83.20;;;;;;5065385;28;20021;-67
2021/11/12 05:13:16;;;;;;;5.18;1.65;;;25.00;98.00;;;;;;5071309;28;20035;-67
2021/11/12 05:51:28;;;;;;;6.13;1.70;;;25.30;99.30;;;;;;5067715;28;20039;-67
2021/11/12 05:56:41;;;;;;;5.00;1.70;;;24.60;99.90;;;;;;5068129;28;20086;-65
2021/11/12 05:59:10;;;;;;;5.90;2.35;;;24.00;99.90;;;;;;5067604;28;20032;-66
2021/11/12 06:01:39;;;;;;;5.97;2.15;;;23.80;99.90;;;;;;5068432;28;20070;-68
2021/11/12 06:04:06;;;;;;;28.08;7.68;;;23.70;99.90;;;;;;5070720;28;20576;-65
2021/11/12 06:06:34;;;;;;;16.65;5.75;;;23.80;99.90;;;;;;5070436;28;20095;-66
2021/11/12 06:09:01;;;;;;;6.90;3.50;;;24.40;99.90;;;;;;5070672;28;20021;-64
2021/11/12 06:11:28;;;;;;;7.40;5.55;;;25.60;99.20;;;;;;5068398;28;20027;-64
2021/11/12 06:13:58;;;;;;;6.03;2.65;;;26.00;98.70;;;;;;5068451;28;20024;-66
2021/11/12 06:16:27;;;;;;;5.88;3.67;;;26.10;96.90;;;;;;5067177;28;20032;-66
2021/11/12 06:18:54;;;;;;;5.30;2.40;;;25.20;99.00;;;;;;5068748;28;20055;-62
2021/11/12 06:21:23;;;;;;;4.03;1.33;;;24.80;99.80;;;;;;5071462;28;20127;-70
2021/11/12 06:23:50;;;;;;;4.57;1.55;;;24.20;99.90;;;;;;5055205;28;20573;-68
2021/11/12 06:26:17;;;;;;;6.07;1.77;;;23.80;99.90;;;;;;5072257;28;20022;-63
2021/11/12 06:28:45;;;;;;;5.43;1.17;;;23.40;99.90;;;;;;5072229;28;20047;-68
2021/11/12 06:31:13;;;;;;;4.53;1.42;;;24.20;99.90;;;;;;5071492;28;20028;-66
2021/11/12 06:33:40;;;;;;;5.25;1.40;;;25.60;99.90;;;;;;5073052;28;20355;-68
2021/11/12 06:36:07;;;;;;;6.72;2.50;;;26.60;96.30;;;;;;5071210;28;20491;-66
2021/11/12 06:38:36;;;;;;;2.38;1.13;;;26.10;97.10;;;;;;5072651;28;20578;-66
2021/11/12 06:41:10;;;;;;;4.32;1.40;;;26.60;95.30;;;;;;5073565;28;20075;-68
2021/11/12 06:51:45;;;;;;;2.78;1.30;;;24.30;99.90;;;;;;5072299;28;20120;-66
2021/11/12 06:54:12;;;;;;;4.90;1.33;;;23.60;99.90;;;;;;5103642;22;20056;-66
2021/11/12 06:56:39;;;;;;;2.25;1.23;;;23.20;99.90;;;;;;5073288;28;20022;-66
2021/11/12 06:59:06;;;;;;;2.53;1.15;;;23.00;99.90;;;;;;5069136;28;20078;-68
2021/11/12 07:01:33;;;;;;;4.28;1.35;;;22.90;99.90;;;;;;5071053;28;20131;-69
2021/11/12 07:04:01;;;;;;;3.55;1.08;;;22.70;99.90;;;;;;5072013;28;20036;-64
2021/11/12 07:06:28;;;;;;;5.43;1.20;;;22.70;99.90;;;;;;5071984;28;20016;-65
2021/11/12 07:08:55;;;;;;;3.00;1.60;;;23.00;99.90;;;;;;5072051;28;20044;-66
2021/11/12 07:11:24;;;;;;;3.58;1.30;;;23.60;99.90;;;;;;5072691;28;20031;-66
2021/11/12 07:13:51;;;;;;;3.13;1.48;;;25.20;99.90;;;;;;5072258;28;20029;-69
2021/11/12 07:16:18;;;;;;;5.22;1.27;;;26.70;96.40;;;;;;5070402;28;20700;-68
2021/11/12 07:18:46;;;;;;;4.30;1.02;;;27.60;93.00;;;;;;5072290;28;20016;-70
2021/11/12 07:21:14;;;;;;;3.47;1.35;;;27.80;94.00;;;;;;5072292;28;20402;-64
2021/11/12 07:23:41;;;;;;;4.22;1.70;;;28.50;88.60;;;;;;5071538;28;20028;-64
2021/11/12 07:26:08;;;;;;;4.47;2.17;;;28.60;87.40;;;;;;5071321;28;20025;-69
2021/11/12 07:28:36;;;;;;;4.93;1.27;;;28.20;88.40;;;;;;5068146;28;21348;-68
2021/11/12 07:31:03;;;;;;;5.97;1.60;;;28.10;89.30;;;;;;5072435;28;20384;-67
2021/11/12 07:33:30;;;;;;;3.78;1.30;;;28.30;85.90;;;;;;5068951;28;20029;-66
2021/11/12 07:38:51;;;;;;;3.17;1.20;;;28.40;85.50;;;;;;5068086;28;20086;-69
2021/11/12 07:46:46;;;;;;;3.20;0.80;;;28.20;66.00;;;;;;5068299;28;20031;-64
2021/11/12 07:49:14;;;;;;;4.45;1.17;;;28.00;53.20;;;;;;5069885;28;20368;-65
2021/11/12 07:51:42;;;;;;;5.65;1.02;;;27.80;54.00;;;;;;5069601;28;20094;-65
2021/11/12 07:54:11;;;;;;;2.78;0.63;;;26.50;52.90;;;;;;5069369;28;20050;-68
2021/11/12 07:56:38;;;;;;;5.60;0.80;;;25.00;57.10;;;;;;5069821;28;20719;-67
2021/11/12 07:59:07;;;;;;;5.82;0.80;;;24.30;59.00;;;;;;5070124;28;20550;-65
2021/11/12 08:01:34;;;;;;;2.92;0.60;;;23.90;60.80;;;;;;5069344;28;20043;-66
2021/11/12 08:04:03;;;;;;;2.13;0.55;;;23.40;60.80;;;;;;5068631;28;20424;-68
2021/11/12 08:06:32;;;;;;;6.15;1.00;;;23.40;61.70;;;;;;5068497;28;20027;-66
2021/11/12 08:09:06;;;;;;;5.85;1.73;;;23.30;62.40;;;;;;5068892;28;20490;-67
2021/11/12 08:11:41;;;;;;;2.20;0.63;;;23.00;63.30;;;;;;5068193;28;20039;-68
2021/11/12 08:16:50;;;;;;;3.85;0.73;;;22.20;67.50;;;;;;5068296;28;20028;-68
2021/11/12 08:24:40;;;;;;;1.13;0.38;;;21.70;68.60;;;;;;5064874;28;20032;-65
2021/11/12 08:32:47;;;;;;;6.57;0.55;;;21.40;73.10;;;;;;5066226;28;20024;-65
2021/11/12 08:38:12;;;;;;;4.53;0.70;;;21.20;72.80;;;;;;5064807;28;20154;-68
2021/11/12 08:40:53;;;;;;;2.78;0.43;;;21.10;74.40;;;;;;5064936;28;20063;-71
2021/11/12 08:43:45;;;;;;;3.38;0.60;;;21.00;73.20;;;;;;5065448;28;20032;-67
2021/11/12 08:49:08;;;;;;;2.38;0.50;;;20.90;75.40;;;;;;5064323;28;20039;-70
2021/11/12 08:51:37;;;;;;;3.58;0.80;;;20.70;76.30;;;;;;5064711;28;20024;-70
2021/11/12 08:54:07;;;;;;;2.33;1.23;;;20.60;76.60;;;;;;5056965;28;20048;-72
2021/11/12 08:56:36;;;;;;;1.92;0.47;;;20.50;77.60;;;;;;5065655;28;20338;-70
2021/11/12 08:59:04;;;;;;;3.03;1.10;;;20.40;78.70;;;;;;5064375;28;20043;-69
2021/11/12 09:01:33;;;;;;;1.30;0.30;;;20.40;79.80;;;;;;5064544;28;20494;-70
2021/11/12 09:04:00;;;;;;;1.83;0.70;;;20.30;80.60;;;;;;5066833;28;20024;-68
2021/11/12 09:06:27;;;;;;;1.48;0.77;;;20.20;80.10;;;;;;5066144;28;20024;-66
2021/11/12 09:08:55;;;;;;;1.98;0.85;;;20.30;80.40;;;;;;5066165;28;20443;-67
2021/11/12 09:11:22;;;;;;;2.63;1.02;;;20.20;80.90;;;;;;5067365;28;20036;-69
2021/11/12 09:14:03;;;;;;;1.98;1.10;;;20.10;82.10;;;;;;5065838;28;20538;-69
2021/11/12 09:16:36;;;;;;;2.45;0.50;;;19.90;83.90;;;;;;5063848;28;20027;-70
2021/11/12 09:19:07;;;;;;;3.20;0.57;;;19.80;84.40;;;;;;5050053;28;20103;-68
2021/11/12 09:21:34;;;;;;;2.45;0.65;;;19.70;84.70;;;;;;5065640;28;20028;-69
2021/11/12 09:24:02;;;;;;;2.10;0.65;;;19.60;87.90;;;;;;5064386;28;20012;-68
2021/11/12 09:26:29;;;;;;;2.85;1.10;;;19.40;89.40;;;;;;5067221;28;20020;-67
2021/11/12 09:28:56;;;;;;;3.45;0.90;;;19.30;90.40;;;;;;5065704;28;21038;-67
2021/11/12 09:31:23;;;;;;;2.13;0.70;;;19.10;91.40;;;;;;5065382;28;20025;-70
2021/11/12 09:33:51;;;;;;;2.03;0.98;;;19.00;91.70;;;;;;5067101;28;20752;-69
2021/11/12 09:36:19;;;;;;;4.25;3.00;;;19.10;90.90;;;;;;5066287;28;20348;-70
2021/11/12 09:38:46;;;;;;;4.72;2.17;;;19.10;91.10;;;;;;5066518;28;20562;-70
2021/11/12 09:41:13;;;;;;;14.30;9.82;;;19.20;90.50;;;;;;5067059;28;20024;-71
2021/11/12 09:43:40;;;;;;;14.02;9.30;;;19.20;92.00;;;;;;5066322;28;20437;-69
2021/11/12 09:46:10;;;;;;;16.05;12.30;;;19.10;91.70;;;;;;5065857;28;20064;-69
2021/11/12 09:48:38;;;;;;;12.75;10.05;;;19.00;91.80;;;;;;5067408;28;20135;-71
2021/11/12 09:51:05;;;;;;;20.70;15.02;;;18.90;93.10;;;;;;5066607;28;20071;-70
2021/11/12 09:53:33;;;;;;;12.30;8.52;;;18.80;93.10;;;;;;5065818;28;20261;-68
2021/11/12 09:56:00;;;;;;;5.50;3.60;;;18.70;93.70;;;;;;5068054;28;20024;-71
2021/11/12 09:58:27;;;;;;;3.17;1.13;;;18.60;93.90;;;;;;5070416;28;20483;-71
2021/11/12 10:00:58;;;;;;;2.58;0.88;;;18.70;93.10;;;;;;5070799;28;20754;-67
2021/11/12 10:03:34;;;;;;;1.42;0.70;;;18.70;92.70;;;;;;5070587;28;20060;-67
2021/11/12 10:06:25;;;;;;;1.33;0.63;;;18.90;92.80;;;;;;5071294;28;20040;-68
2021/11/12 10:08:53;;;;;;;2.90;0.68;;;18.90;92.50;;;;;;5068870;28;20020;-65
2021/11/12 10:11:30;;;;;;;1.88;0.70;;;18.70;93.10;;;;;;5069450;28;20031;-71
2021/11/12 10:14:03;;;;;;;0.95;0.40;;;18.70;93.00;;;;;;5069817;28;20586;-68
2021/11/12 10:16:39;;;;;;;1.60;0.40;;;18.70;93.10;;;;;;5068032;28;20107;-71
2021/11/12 10:19:19;;;;;;;0.68;0.50;;;18.80;93.60;;;;;;5068453;28;20100;-70
2021/11/12 10:21:48;;;;;;;1.60;0.57;;;18.80;93.10;;;;;;5068665;28;20699;-68
2021/11/12 10:24:16;;;;;;;0.90;0.70;;;18.90;93.30;;;;;;5070234;28;20032;-66
2021/11/12 10:26:51;;;;;;;1.05;0.52;;;18.90;93.20;;;;;;5071021;28;20025;-68
2021/11/12 10:29:34;;;;;;;2.63;0.70;;;18.90;93.10;;;;;;5071432;28;20016;-68
2021/11/12 10:32:08;;;;;;;3.00;0.68;;;18.80;93.80;;;;;;5069487;28;20028;-66
2021/11/12 10:34:42;;;;;;;1.88;0.85;;;18.80;94.30;;;;;;5067656;28;20069;-68
2021/11/12 10:37:28;;;;;;;2.45;0.90;;;18.80;93.90;;;;;;5069212;28;20083;-67
2021/11/12 10:40:04;;;;;;;0.95;0.70;;;18.80;93.90;;;;;;5068541;28;20033;-67
2021/11/12 10:42:40;;;;;;;0.70;0.50;;;18.80;93.90;;;;;;5069831;28;20498;-68
2021/11/12 10:45:16;;;;;;;0.77;0.52;;;18.80;93.60;;;;;;5070142;28;20032;-68
2021/11/12 10:47:58;;;;;;;1.17;0.32;;;18.90;93.70;;;;;;5069743;28;20028;-69
2021/11/12 10:50:33;;;;;;;1.42;0.40;;;19.00;93.60;;;;;;5068839;28;20020;-68
2021/11/12 10:53:10;;;;;;;0.20;0.10;;;18.90;94.30;;;;;;5067975;28;20106;-67
2021/11/12 10:55:38;;;;;;;0.20;0.13;;;18.80;95.40;;;;;;5070886;28;20158;-68
2021/11/12 10:58:11;;;;;;;0.05;0.05;;;18.70;95.90;;;;;;5049991;28;20028;-69
2021/11/12 11:00:39;;;;;;;;;;;18.60;96.30;;;;;;5068724;28;20089;-69
2021/11/12 11:03:09;;;;;;;0.98;0.10;;;18.50;96.60;;;;;;5070167;28;19994;-67
2021/11/12 11:05:47;;;;;;;2.90;0.22;;;18.50;96.50;;;;;;5069412;28;20074;-68
2021/11/12 11:08:29;;;;;;;0.47;0.10;;;18.40;96.90;;;;;;5066779;28;20067;-68
2021/11/12 11:11:00;;;;;;;0.17;0.17;;;18.30;97.00;;;;;;5073454;28;20098;-68
2021/11/12 11:13:31;;;;;;;0.15;0.10;;;18.20;97.70;;;;;;5071154;28;20075;-69
2021/11/12 11:16:10;;;;;;;1.92;0.35;;;18.20;98.10;;;;;;5053232;28;20040;-69
2021/11/12 11:18:40;;;;;;;0.60;0.40;;;18.10;98.40;;;;;;5072527;28;20082;-70
2021/11/12 11:23:55;;;;;;;0.63;0.50;;;18.00;99.10;;;;;;5075256;28;20058;-70
2021/11/12 11:26:45;;;;;;;0.40;0.40;;;18.00;98.90;;;;;;5074058;28;20171;-69
2021/11/12 11:29:22;;;;;;;0.70;0.40;;;18.00;98.80;;;;;;5075124;28;20028;-67
2021/11/12 11:31:50;;;;;;;0.30;0.25;;;18.00;98.80;;;;;;5075121;28;20020;-68
2021/11/12 11:34:18;;;;;;;0.10;0.10;;;18.00;99.10;;;;;;5074244;28;20625;-67
2021/11/12 11:36:45;;;;;;;0.50;0.20;;;18.00;98.80;;;;;;5074182;28;20031;-68
2021/11/12 11:39:18;;;;;;;0.57;0.20;;;17.90;99.10;;;;;;5073105;28;20024;-68
2021/11/12 11:41:46;;;;;;;0.20;0.10;;;17.90;99.10;;;;;;5074729;28;20556;-67
2021/11/12 11:44:20;;;;;;;0.45;0.38;;;17.90;98.80;;;;;;5072713;28;20105;-69
2021/11/12 11:46:53;;;;;;;0.13;0.10;;;17.90;99.00;;;;;;5070917;28;20024;-68
2021/11/12 11:49:23;;;;;;;0.20;0.20;;;17.90;98.90;;;;;;5073568;28;20028;-67
2021/11/12 11:52:00;;;;;;;0.88;0.17;;;17.80;99.20;;;;;;5072897;28;20072;-69
2021/11/12 11:54:43;;;;;;;0.10;0.10;;;17.80;99.60;;;;;;5073862;28;20101;-67
2021/11/12 11:57:18;;;;;;;0.10;0.10;;;17.70;99.60;;;;;;5074661;28;20529;-69
2021/11/12 11:59:47;;;;;;;0.10;0.10;;;17.70;99.80;;;;;;5074484;28;20036;-68
2021/11/12 12:02:19;;;;;;;0.25;0.20;;;17.80;99.30;;;;;;5072738;28;20119;-68
2021/11/12 12:04:58;;;;;;;0.20;0.20;;;17.80;99.20;;;;;;5053896;28;20028;-68
2021/11/12 12:07:42;;;;;;;0.20;0.20;;;17.70;99.50;;;;;;5073239;28;20592;-69
2021/11/12 12:10:19;;;;;;;0.10;0.10;;;17.70;99.60;;;;;;5073135;28;20024;-68
2021/11/12 12:12:52;;;;;;;1.80;1.10;;;17.70;99.40;;;;;;5073342;28;20028;-67
2021/11/12 12:15:22;;;;;;;0.35;0.20;;;17.80;99.10;;;;;;5072446;28;20914;-68
2021/11/12 12:18:05;;;;;;;0.60;0.40;;;17.70;98.90;;;;;;5071974;28;20032;-69
2021/11/12 13:23:08;;;;;;;0.20;0.20;;;16.70;95.10;;;;;;5072712;28;20475;-68
2021/11/12 13:25:41;;;;;;;0.40;0.20;;;16.70;95.20;;;;;;5054946;28;20058;-69
2021/11/12 13:28:23;;;;;;;1.30;0.30;;;16.60;95.40;;;;;;5071695;28;20104;-67
2021/11/12 13:30:52;;;;;;;0.63;0.50;;;16.60;95.40;;;;;;5072016;28;20036;-67
2021/11/12 13:33:49;;;;;;;1.75;0.73;;;16.60;95.50;;;;;;5072881;28;20111;-67
2021/11/12 13:36:35;;;;;;;0.40;0.40;;;16.60;95.80;;;;;;5073364;28;20075;-66
2021/11/12 13:39:05;;;;;;;0.30;0.30;;;16.50;95.70;;;;;;5072920;28;20024;-69
2021/11/12 13:41:41;;;;;;;0.22;0.22;;;16.40;96.40;;;;;;5073059;28;20025;-67
2021/11/12 13:44:12;;;;;;;0.20;0.20;;;16.40;96.20;;;;;;5072242;28;20098;-68
2021/11/12 13:46:53;;;;;;;0.98;0.55;;;16.40;96.50;;;;;;5073896;28;20039;-67
2021/11/12 13:49:44;;;;;;;0.10;0.10;;;16.30;96.50;;;;;;5072196;28;20035;-67
2021/11/12 13:52:27;;;;;;;0.90;0.15;;;16.20;97.40;;;;;;5073498;28;20024;-66
2021/11/12 13:55:07;;;;;;;0.90;0.30;;;16.10;97.30;;;;;;5073560;28;20568;-68
2021/11/12 13:57:35;;;;;;;0.93;0.20;;;16.00;98.00;;;;;;5073443;28;20752;-70
2021/11/12 14:00:02;;;;;;;0.20;0.15;;;16.00;98.40;;;;;;5072285;28;20441;-68
2021/11/12 14:02:31;;;;;;;0.20;0.20;;;16.00;98.30;;;;;;5071805;28;20033;-67
2021/11/12 14:05:12;;;;;;;0.50;0.20;;;15.90;98.40;;;;;;5071862;28;20032;-70
2021/11/12 14:07:40;;;;;;;0.40;0.10;;;15.90;98.40;;;;;;5073647;28;20024;-69
2021/11/12 14:10:10;;;;;;;0.10;0.10;;;16.00;98.00;;;;;;5073051;28;20025;-68
2021/11/12 14:12:50;;;;;;;0.10;0.10;;;16.00;97.90;;;;;;5073215;28;20024;-66
2021/11/12 14:15:29;;;;;;;0.60;0.13;;;16.00;97.80;;;;;;5071524;28;20059;-68
2021/11/12 14:21:20;;;;;;;0.77;0.30;;;16.00;97.90;;;;;;5072492;28;20071;-68
2021/11/12 14:40:16;;;;;;;0.20;0.20;;;15.90;98.20;;;;;;5074479;28;20028;-71
2021/11/12 14:45:40;;;;;;;0.10;0.10;;;15.80;98.40;;;;;;5078947;28;20027;-68
2021/11/12 14:50:54;;;;;;;0.10;0.10;;;15.80;98.20;;;;;;5078827;28;20040;-68
2021/11/12 14:58:55;;;;;;;0.10;0.10;;;15.70;97.70;;;;;;5078427;28;20020;-68
2021/11/12 15:01:26;;;;;;;0.40;0.20;;;15.70;97.70;;;;;;5079099;28;20031;-68
2021/11/12 15:03:53;;;;;;;0.30;0.20;;;15.70;97.50;;;;;;5078773;28;20036;-71
2021/11/12 15:06:24;;;;;;;0.10;0.10;;;15.70;97.20;;;;;;5078382;28;20034;-69
2021/11/12 15:11:23;;;;;;;0.20;0.15;;;15.70;97.00;;;;;;5078282;28;20012;-69
2021/11/12 15:13:53;;;;;;;0.30;0.30;;;15.60;96.80;;;;;;5078321;28;20085;-68
2021/11/12 15:16:22;;;;;;;0.20;0.20;;;15.50;96.90;;;;;;5076716;28;20067;-68
2021/11/12 15:18:53;;;;;;;0.25;0.20;;;15.50;96.20;;;;;;5078019;28;20051;-70
2021/11/12 15:21:29;;;;;;;0.47;0.28;;;15.60;96.00;;;;;;5077215;28;20066;-69
2021/11/12 15:29:21;;;;;;;1.25;0.20;;;15.50;96.80;;;;;;5077691;28;20032;-71
2021/11/12 15:34:46;;;;;;;0.20;0.20;;;15.30;97.50;;;;;;5076968;28;20160;-71
2021/11/12 15:45:59;;;;;;;0.10;0.10;;;15.10;98.10;;;;;;5077521;28;20560;-69
2021/11/12 15:48:12;;;;;;;0.10;0.10;;;15.10;98.10;;;;;;5066324;28;20056;-70
2021/11/12 15:53:46;;;;;;;0.13;0.13;;;15.10;97.50;;;;;;5076873;28;20063;-68
2021/11/12 16:17:50;;;;;;;0.30;0.30;;;14.90;97.40;;;;;;5075531;28;20430;-69
2021/11/12 16:25:41;;;;;;;0.20;0.20;;;;;;;;;;5076370;28;20063;-68
2021/11/12 16:28:16;;;;;;;0.50;0.30;;;14.60;98.30;;;;;;5075475;28;20025;-68
2021/11/12 16:30:48;;;;;;;0.30;0.20;;;14.60;98.70;;;;;;5075667;28;20073;-68
2021/11/12 16:33:15;;;;;;;0.22;0.22;;;14.60;98.90;;;;;;5075035;28;20017;-69
2021/11/12 16:35:43;;;;;;;0.50;0.10;;;14.60;98.80;;;;;;5077291;28;20060;-68
2021/11/12 16:38:21;;;;;;;0.10;0.10;;;14.50;99.50;;;;;;5058988;28;20953;-69
2021/11/12 16:40:58;;;;;;;0.15;0.15;;;14.40;99.80;;;;;;5076370;28;20056;-67
2021/11/12 16:56:43;;;;;;;0.10;0.10;;;14.40;99.80;;;;;;5075899;28;20126;-67
2021/11/12 17:02:29;;;;;;;0.10;0.10;;;14.30;99.90;;;;;;5075692;28;20031;-68
2021/11/12 17:10:41;;;;;;;0.63;0.20;;;14.30;99.90;;;;;;5076515;28;20054;-70
2021/11/12 17:13:15;;;;;;;0.10;0.10;;;14.20;99.90;;;;;;4373938;28;10000531;-68
2021/11/12 17:16:15;;;;;;;2.72;0.55;;;14.20;99.90;;;;;;5072876;28;20789;-68
2021/11/12 17:48:53;;;;;;;1.75;0.28;;;13.30;99.90;;;;;;5072774;28;20104;-69
2021/11/12 18:01:35;;;;;;;0.20;0.20;;;13.20;99.90;;;;;;5072001;28;20106;-69
2021/11/12 18:05:04;;;;;;;0.10;0.10;;;13.10;99.90;;;;;;5071568;28;20024;-68
2021/11/12 18:07:47;;;;;;;0.40;0.20;;;13.10;99.90;;;;;;5072224;28;20025;-68
2021/11/12 18:13:08;;;;;;;0.35;0.20;;;13.00;99.90;;;;;;5072198;28;21339;-70
2021/11/12 21:48:26;;;;;;;0.15;0.10;;;17.70;81.40;;;;;;5059114;28;20063;-63
2021/11/12 21:50:58;;;;;;;0.20;0.20;;;17.80;80.70;;;;;;5061391;28;20017;-63
2021/11/12 21:53:25;;;;;;;0.70;0.60;;;17.90;81.00;;;;;;5064739;28;20128;-64
2021/11/12 21:55:54;;;;;;;0.15;0.10;;;18.10;80.70;;;;;;5037135;28;20437;-65
2021/11/12 21:58:21;;;;;;;0.52;0.20;;;18.10;76.60;;;;;;5053421;28;20036;-65
2021/11/12 22:00:50;;;;;;;0.45;0.45;;;18.10;78.20;;;;;;5055015;28;20043;-64
2021/11/12 22:03:17;;;;;;;0.35;0.30;;;18.40;79.40;;;;;;5055102;28;20479;-65
2021/11/12 22:05:45;;;;;;;0.90;0.40;;;18.60;77.10;;;;;;5052869;28;20036;-67
2021/11/12 22:08:12;;;;;;;2.08;1.40;;;18.90;75.60;;;;;;5056533;28;20028;-65
2021/11/12 22:10:39;;;;;;;1.58;0.95;;;19.10;75.50;;;;;;5055838;28;20472;-66
2021/11/12 22:13:08;;;;;;;0.57;0.17;;;19.50;76.10;;;;;;5054049;28;20025;-66
2021/11/12 22:15:35;;;;;;;0.55;0.38;;;19.60;72.00;;;;;;5055297;28;20060;-65
2021/11/12 22:18:03;;;;;;;1.27;0.10;;;19.30;72.10;;;;;;5054456;28;20037;-66
2021/11/12 22:20:30;;;;;;;0.20;0.20;;;19.00;73.20;;;;;;5054837;28;20040;-67
2021/11/12 22:22:57;;;;;;;1.23;0.10;;;18.90;72.70;;;;;;5053752;28;20466;-67
2021/11/12 22:25:24;;;;;;;0.10;0.10;;;18.80;72.20;;;;;;5053053;28;20086;-69
2021/11/12 22:27:51;;;;;;;0.47;0.13;;;18.70;72.20;;;;;;5051970;28;20093;-69
2021/11/12 22:30:18;;;;;;;0.45;0.10;;;18.70;72.50;;;;;;5048350;28;20976;-68
2021/11/12 22:32:46;;;;;;;0.90;0.20;;;19.10;73.50;;;;;;5054311;28;20681;-69
2021/11/12 22:35:13;;;;;;;0.20;0.20;;;19.20;69.50;;;;;;5054213;28;20029;-69
2021/11/12 22:37:40;;;;;;;0.55;0.40;;;19.10;71.10;;;;;;5053381;28;20109;-68
2021/11/12 22:40:08;;;;;;;0.73;0.38;;;19.10;69.60;;;;;;5051172;28;20028;-69
2021/11/12 22:42:38;;;;;;;1.15;0.38;;;19.20;71.00;;;;;;5049476;28;20580;-67
2021/11/12 22:45:07;;;;;;;0.20;0.20;;;19.40;70.10;;;;;;5046699;28;20053;-68
2021/11/12 22:47:34;;;;;;;1.52;0.17;;;19.50;68.80;;;;;;5051752;28;20087;-67
2021/11/12 22:50:06;;;;;;;0.50;0.38;;;19.80;66.60;;;;;;5054269;28;20271;-68
2021/11/12 22:52:33;;;;;;;0.20;0.20;;;20.00;65.90;;;;;;5054594;28;20063;-67
2021/11/12 22:55:00;;;;;;;1.95;0.88;;;20.30;66.50;;;;;;5063057;28;20047;-68
2021/11/12 22:57:27;;;;;;;2.65;0.30;;;20.30;64.10;;;;;;5060201;28;20068;-68
2021/11/12 22:59:54;;;;;;;1.00;0.40;;;19.70;64.00;;;;;;5059546;28;20024;-68
2021/11/12 23:02:21;;;;;;;0.20;0.20;;;19.50;65.00;;;;;;5060224;28;20037;-67
2021/11/12 23:04:48;;;;;;;1.30;0.68;;;19.70;66.10;;;;;;5058421;28;20024;-68
2021/11/12 23:07:16;;;;;;;0.28;0.25;;;20.20;67.60;;;;;;5061195;28;20020;-68
2021/11/12 23:09:44;;;;;;;0.65;0.50;;;20.60;64.40;;;;;;5037038;28;20395;-68
2021/11/12 23:12:12;;;;;;;0.47;0.35;;;20.50;61.90;;;;;;5059777;28;20365;-74
2021/11/12 23:14:39;;;;;;;1.63;0.28;;;20.10;62.40;;;;;;5058715;28;20064;-66
2021/11/12 23:17:06;;;;;;;1.33;0.55;;;19.80;64.10;;;;;;5057477;28;20024;-66
2021/11/12 23:19:33;;;;;;;0.65;0.40;;;20.00;66.00;;;;;;5058763;28;20055;-66
2021/11/12 23:22:00;;;;;;;0.28;0.20;;;20.50;64.40;;;;;;5058399;28;20103;-66
2021/11/12 23:24:27;;;;;;;1.20;0.50;;;20.60;62.00;;;;;;5058753;28;20036;-66
2021/11/12 23:26:54;;;;;;;0.88;0.30;;;20.80;61.20;;;;;;5060045;28;20024;-67
2021/11/12 23:29:21;;;;;;;0.30;0.30;;;21.10;61.00;;;;;;5059288;28;20035;-69
2021/11/12 23:31:48;;;;;;;0.20;0.20;;;21.60;59.70;;;;;;5059131;28;20025;-65
2021/11/12 23:34:15;;;;;;;0.30;0.30;;;21.70;57.60;;;;;;5060139;28;20025;-65